Time;durP1;ratioP1;P1;durP2;ratioP2;P2;SDS_P1;SDS_P2;PMS_P1;PMS_P2;Temp;Humidity;BMP_temperature;BMP_pressure;BME280_temperature;BME280_humidity;BME280_pressure;Samples;Min_cycle;Max_cycle;Signal;HPM_P1;HPM_P2
2021/06/02 00:02:21;;;;;;;7.88;3.80;;;;;;;;;;5055581;28;20081;-80
2021/06/02 00:04:53;;;;;;;5.35;3.30;;;16.20;71.30;;;;;;5053403;28;20043;-79
2021/06/02 00:07:27;;;;;;;6.38;3.40;;;16.10;71.70;;;;;;5037799;28;20032;-79
2021/06/02 00:09:54;;;;;;;5.25;3.38;;;16.10;71.70;;;;;;5062269;28;20057;-80
2021/06/02 00:12:21;;;;;;;5.82;3.25;;;13.60;70.60;;;;;;5058403;28;20016;-81
2021/06/02 00:14:47;;;;;;;5.85;3.80;;;16.70;72.60;;;;;;5070562;28;20021;-82
2021/06/02 00:17:13;;;;;;;6.45;3.50;;;;;;;;;;5042602;28;20033;-82
2021/06/02 00:19:41;;;;;;;5.70;3.53;;;15.90;72.40;;;;;;5041601;28;20103;-81
2021/06/02 00:22:08;;;;;;;5.40;3.45;;;15.80;73.10;;;;;;5035483;28;20063;-80
2021/06/02 00:24:34;;;;;;;5.72;3.90;;;17.10;74.50;;;;;;5034937;28;20025;-78
2021/06/02 00:27:04;;;;;;;6.13;3.63;;;15.80;74.20;;;;;;5032946;28;20025;-80
2021/06/02 00:29:35;;;;;;;6.13;3.88;;;15.70;74.30;;;;;;5016122;28;20091;-84
2021/06/02 00:32:03;;;;;;;6.07;3.53;;;15.70;74.50;;;;;;5060812;28;20025;-81
2021/06/02 00:34:29;;;;;;;5.88;3.53;;;;;;;;;;5062765;28;20031;-81
2021/06/02 00:36:57;;;;;;;5.25;3.47;;;15.70;75.00;;;;;;5046720;28;20131;-81
2021/06/02 00:39:23;;;;;;;5.53;3.40;;;15.60;75.20;;;;;;5047146;28;20188;-80
2021/06/02 00:41:49;;;;;;;6.03;3.65;;;15.60;75.00;;;;;;5051765;28;20445;-80
2021/06/02 00:44:17;;;;;;;6.63;3.80;;;17.30;76.70;;;;;;5049419;28;20030;-80
2021/06/02 00:46:44;;;;;;;6.80;3.90;;;15.60;75.50;;;;;;5035438;28;20052;-80
2021/06/02 00:49:12;;;;;;;8.48;3.58;;;15.60;75.50;;;;;;5033975;28;20033;-82
2021/06/02 00:51:39;;;;;;;5.85;3.60;;;15.60;75.70;;;;;;5054413;28;20323;-82
2021/06/02 00:54:08;;;;;;;5.05;3.50;;;15.60;75.70;;;;;;5044851;28;20036;-83
2021/06/02 00:56:34;;;;;;;5.90;3.78;;;;;;;;;;5040333;28;20029;-81
2021/06/02 00:59:03;;;;;;;5.60;3.67;;;15.50;75.90;;;;;;5042787;28;20042;-79
2021/06/02 01:01:33;;;;;;;6.53;3.78;;;15.50;76.20;;;;;;5038204;28;20756;-80
2021/06/02 01:04:03;;;;;;;6.80;3.95;;;15.40;76.90;;;;;;5036480;28;20036;-80
2021/06/02 01:06:34;;;;;;;4.97;3.33;;;15.20;77.20;;;;;;5040268;28;20093;-78
2021/06/02 01:09:01;;;;;;;5.30;3.80;;;17.70;78.90;;;;;;5056772;28;20037;-82
2021/06/02 01:11:27;;;;;;;7.95;3.88;;;17.20;78.80;;;;;;5049331;28;20404;-82
2021/06/02 01:13:57;;;;;;;4.88;3.42;;;15.20;77.70;;;;;;5054791;28;20036;-80
2021/06/02 01:16:32;;;;;;;6.75;3.38;;;15.20;78.10;;;;;;5041590;28;20044;-81
2021/06/02 01:18:58;;;;;;;4.80;3.17;;;15.10;78.20;;;;;;5053010;28;20040;-82
2021/06/02 01:21:27;;;;;;;7.05;3.50;;;15.10;78.50;;;;;;5036130;28;20045;-81
2021/06/02 01:23:57;;;;;;;5.35;3.67;;;18.30;80.70;;;;;;5058240;28;20094;-80
2021/06/02 01:26:23;;;;;;;;;;;15.00;78.10;;;;;;5056409;28;20035;-81
2021/06/02 01:28:50;;;;;;;4.50;3.30;;;15.20;77.30;;;;;;5052082;28;19920;-79
2021/06/02 01:31:53;;;;;;;5.45;3.05;;;17.50;77.50;;;;;;5038770;28;20033;-81
2021/06/02 01:34:56;;;;;;;5.50;2.80;;;15.10;75.40;;;;;;5056961;28;20013;-82
2021/06/02 01:37:52;;;;;;;5.10;3.22;;;15.00;74.90;;;;;;5052021;28;20044;-82
2021/06/02 01:40:47;;;;;;;4.07;2.80;;;15.00;74.90;;;;;;5041813;28;20025;-81
2021/06/02 01:43:37;;;;;;;4.53;3.17;;;15.00;74.80;;;;;;5011179;28;20045;-81
2021/06/02 01:46:24;;;;;;;3.97;2.90;;;15.00;75.00;;;;;;5054000;28;20400;-80
2021/06/02 01:49:22;;;;;;;4.43;3.08;;;15.00;74.70;;;;;;5040638;28;20032;-80
2021/06/02 01:52:23;;;;;;;4.50;3.00;;;15.10;75.40;;;;;;5054105;28;20040;-80
2021/06/02 01:55:10;;;;;;;3.63;2.50;;;14.90;74.70;;;;;;5050963;28;20033;-81
2021/06/02 01:58:13;;;;;;;4.20;2.90;;;14.90;75.60;;;;;;5058126;28;20025;-82
2021/06/02 02:05:02;;;;;;;5.75;3.03;;;14.70;76.30;;;;;;5043152;28;20124;-83
2021/06/02 02:07:33;;;;;;;5.53;2.95;;;14.80;76.40;;;;;;5021066;28;20079;-82
2021/06/02 02:10:36;;;;;;;5.13;3.25;;;14.70;77.30;;;;;;5042166;28;20029;-80
2021/06/02 02:13:25;;;;;;;4.80;3.55;;;14.60;77.30;;;;;;5056625;28;20659;-81
2021/06/02 02:16:10;;;;;;;6.05;3.28;;;14.70;77.70;;;;;;5052405;28;20033;-80
2021/06/02 02:19:14;;;;;;;5.50;3.08;;;14.70;78.60;;;;;;5041071;28;20518;-80
2021/06/02 02:21:40;;;;;;;6.38;3.45;;;14.70;77.60;;;;;;5039741;28;20037;-81
2021/06/02 02:24:12;;;;;;;7.68;3.90;;;14.70;77.70;;;;;;5039342;28;20033;-82
2021/06/02 02:26:55;;;;;;;6.47;4.13;;;15.40;79.20;;;;;;5054395;28;20116;-84
2021/06/02 02:29:39;;;;;;;5.22;3.40;;;17.20;81.20;;;;;;5053874;28;20030;-80
2021/06/02 02:32:13;;;;;;;6.47;3.67;;;13.80;80.00;;;;;;5056739;28;20770;-81
2021/06/02 02:34:56;;;;;;;7.57;3.78;;;14.60;81.00;;;;;;5054222;28;20550;-80
2021/06/02 02:37:33;;;;;;;5.63;3.67;;;14.70;81.20;;;;;;5029841;28;20093;-80
2021/06/02 02:40:04;;;;;;;5.75;3.63;;;14.40;81.30;;;;;;5047600;28;20036;-80
2021/06/02 02:42:59;;;;;;;9.02;3.50;;;14.40;81.80;;;;;;5055783;28;20040;-79
2021/06/02 02:45:41;;;;;;;6.80;3.90;;;14.50;81.90;;;;;;5033283;28;20057;-81
2021/06/02 02:48:37;;;;;;;6.53;3.63;;;14.30;82.50;;;;;;5054487;28;20029;-80
2021/06/02 02:51:25;;;;;;;6.40;4.10;;;14.30;83.10;;;;;;5058141;28;20592;-81
2021/06/02 02:53:50;;;;;;;6.30;3.92;;;14.30;83.20;;;;;;5039524;28;20112;-81
2021/06/02 02:56:28;;;;;;;6.13;4.70;;;14.70;83.90;;;;;;5048021;28;20064;-80
2021/06/02 02:59:12;;;;;;;6.47;3.70;;;15.80;84.40;;;;;;5036340;28;20026;-80
2021/06/02 03:02:15;;;;;;;5.65;3.92;;;14.30;84.00;;;;;;5039550;28;20730;-82
2021/06/02 03:04:46;;;;;;;8.48;4.40;;;14.20;84.40;;;;;;5044138;28;20046;-82
2021/06/02 03:07:13;;;;;;;7.18;4.10;;;17.50;86.80;;;;;;5039245;28;20028;-78
2021/06/02 03:09:51;;;;;;;6.75;3.85;;;14.10;85.50;;;;;;5033770;28;20029;-80
2021/06/02 03:12:54;;;;;;;8.02;4.25;;;13.90;84.60;;;;;;5057747;28;20056;-81
2021/06/02 03:15:46;;;;;;;6.53;3.58;;;14.00;84.20;;;;;;5043744;28;20086;-81
2021/06/02 03:18:24;;;;;;;7.15;3.40;;;14.00;84.20;;;;;;5037133;28;20029;-80
2021/06/02 03:21:15;;;;;;;4.63;3.58;;;14.60;83.70;;;;;;5049921;28;20048;-83
2021/06/02 03:23:50;;;;;;;6.28;4.28;;;13.90;84.50;;;;;;5031668;28;20515;-82
2021/06/02 03:26:20;;;;;;;8.05;4.07;;;13.90;85.30;;;;;;5059724;28;20110;-82
2021/06/02 03:29:10;;;;;;;5.55;3.15;;;16.00;86.90;;;;;;5035634;28;20082;-80
2021/06/02 03:32:09;;;;;;;5.43;3.45;;;13.90;85.00;;;;;;5037396;28;20109;-82
2021/06/02 03:34:46;;;;;;;5.82;3.13;;;13.90;85.00;;;;;;5034201;28;20084;-79
2021/06/02 03:37:50;;;;;;;5.93;3.55;;;13.90;84.20;;;;;;5052916;28;20044;-80
2021/06/02 03:40:43;;;;;;;3.90;2.60;;;13.90;84.50;;;;;;5042952;28;20029;-79
2021/06/02 03:43:27;;;;;;;6.05;3.80;;;13.90;84.90;;;;;;5048685;28;20040;-81
2021/06/02 03:46:16;;;;;;;6.00;3.75;;;13.90;86.20;;;;;;5056498;28;20037;-80
2021/06/02 03:49:01;;;;;;;7.20;3.88;;;13.70;86.90;;;;;;5056202;28;20028;-79
2021/06/02 03:51:37;;;;;;;6.72;3.80;;;13.70;87.30;;;;;;5056071;28;20032;-80
2021/06/02 03:54:26;;;;;;;6.40;4.13;;;13.70;87.10;;;;;;5040177;28;20127;-81
2021/06/02 03:57:12;;;;;;;7.57;4.00;;;13.60;87.10;;;;;;5048525;28;20034;-80
2021/06/02 04:00:15;;;;;;;6.35;3.83;;;13.60;88.10;;;;;;5035960;28;20044;-80
2021/06/02 04:03:19;;;;;;;6.65;4.32;;;13.60;88.30;;;;;;5038414;28;20049;-84
2021/06/02 04:06:06;;;;;;;6.40;3.70;;;13.50;89.10;;;;;;5051198;28;20383;-82
2021/06/02 04:09:18;;;;;;;7.85;3.70;;;13.40;89.80;;;;;;5058603;28;20036;-83
2021/06/02 04:12:09;;;;;;;6.25;4.25;;;13.40;90.10;;;;;;4983911;28;20034;-79
2021/06/02 04:14:36;;;;;;;8.65;4.30;;;14.50;90.30;;;;;;5050178;28;20089;-79
2021/06/02 04:17:02;;;;;;;7.03;4.55;;;13.70;88.60;;;;;;5058541;28;20021;-80
2021/06/02 04:19:33;;;;;;;7.15;4.40;;;13.60;88.50;;;;;;5050892;28;20035;-82
2021/06/02 04:22:06;;;;;;;7.38;4.55;;;13.50;88.90;;;;;;5035155;28;20028;-81
2021/06/02 04:24:34;;;;;;;9.07;4.25;;;13.50;88.80;;;;;;5035666;28;20499;-80
2021/06/02 04:27:00;;;;;;;8.13;4.57;;;16.50;90.50;;;;;;5031746;28;20534;-81
2021/06/02 04:29:27;;;;;;;10.20;4.65;;;13.50;90.00;;;;;;5035675;28;20028;-79
2021/06/02 04:31:54;;;;;;;5.35;3.70;;;13.60;90.00;;;;;;5039438;28;20065;-80
2021/06/02 04:34:21;;;;;;;6.35;4.10;;;13.70;89.30;;;;;;5055602;28;20033;-82
2021/06/02 04:36:53;;;;;;;6.78;4.30;;;13.70;89.10;;;;;;5057080;28;20029;-80
2021/06/02 04:39:20;;;;;;;7.30;4.22;;;14.80;89.20;;;;;;5040512;28;20037;-81
2021/06/02 04:41:47;;;;;;;8.05;3.80;;;13.90;88.00;;;;;;5041263;28;20039;-82
2021/06/02 04:44:15;;;;;;;5.65;3.72;;;14.00;87.70;;;;;;5054795;28;20025;-82
2021/06/02 04:46:50;;;;;;;7.00;2.92;;;14.10;86.30;;;;;;5040439;28;20135;-82
2021/06/02 04:49:17;;;;;;;5.15;3.08;;;17.00;86.50;;;;;;5036313;28;20087;-81
2021/06/02 04:51:58;;;;;;;6.85;3.80;;;14.40;84.60;;;;;;5054496;28;20033;-82
2021/06/02 04:55:07;;;;;;;6.50;3.30;;;14.50;84.30;;;;;;5038304;28;20526;-81
2021/06/02 04:58:00;;;;;;;4.60;3.30;;;14.70;83.70;;;;;;5049176;28;20067;-75
2021/06/02 05:01:03;;;;;;;5.40;3.00;;;14.90;82.10;;;;;;5036776;28;20029;-83
2021/06/02 05:04:07;;;;;;;5.32;3.20;;;15.10;80.80;;;;;;5036351;28;20040;-79
2021/06/02 05:06:51;;;;;;;6.72;3.80;;;15.30;79.90;;;;;;5055259;28;20121;-76
2021/06/02 05:09:52;;;;;;;4.85;3.25;;;15.40;79.40;;;;;;5054565;28;20029;-82
2021/06/02 05:12:58;;;;;;;5.97;3.25;;;15.50;79.70;;;;;;5050491;28;20028;-82
2021/06/02 05:15:39;;;;;;;4.47;2.95;;;;;;;;;;5044689;28;20009;-81
2021/06/02 05:18:11;;;;;;;;;;;15.70;78.40;;;;;;5056799;28;20483;-81
2021/06/02 05:23:48;;;;;;;5.32;2.80;;;16.50;76.00;;;;;;5053197;28;20029;-81
2021/06/02 05:26:20;;;;;;;4.55;2.85;;;17.50;72.20;;;;;;5049024;28;20032;-81
2021/06/02 05:29:23;;;;;;;9.55;7.90;;;18.00;69.30;;;;;;5030323;28;20078;-81
2021/06/02 05:32:26;;;;;;;5.60;3.42;;;17.60;70.10;;;;;;5037643;28;20021;-81
2021/06/02 05:35:29;;;;;;;5.80;3.80;;;17.60;71.10;;;;;;5037467;28;20021;-79
2021/06/02 05:38:32;;;;;;;5.50;4.10;;;17.20;72.60;;;;;;5037960;28;20025;-84
2021/06/02 05:40:58;;;;;;;4.95;3.45;;;;;;;;;;5036931;28;20040;-82
2021/06/02 05:44:01;;;;;;;6.15;3.50;;;16.70;74.80;;;;;;5045578;28;20033;-82
2021/06/02 05:46:45;;;;;;;8.68;3.80;;;17.20;74.50;;;;;;5040570;28;20033;-80
2021/06/02 05:49:34;;;;;;;5.47;3.22;;;18.10;71.30;;;;;;5045065;28;20021;-81
2021/06/02 05:52:00;;;;;;;5.32;3.40;;;;;;;;;;5044285;28;20059;-79
2021/06/02 05:54:51;;;;;;;7.18;3.28;;;19.70;65.40;;;;;;5041967;28;20045;-82
2021/06/02 05:57:54;;;;;;;6.10;4.00;;;19.80;64.50;;;;;;5042896;28;20047;-82
2021/06/02 06:00:19;;;;;;;6.90;3.35;;;20.20;62.90;;;;;;5033228;28;20029;-83
2021/06/02 06:03:09;;;;;;;6.45;3.47;;;20.60;62.10;;;;;;5051849;28;20524;-82
2021/06/02 06:05:41;;;;;;;8.10;4.30;;;21.40;60.70;;;;;;5033598;28;20080;-81
2021/06/02 06:08:13;;;;;;;7.60;4.43;;;21.80;58.70;;;;;;5033125;28;20048;-82
2021/06/02 06:11:09;;;;;;;9.40;4.78;;;22.10;57.30;;;;;;5034743;28;20059;-81
2021/06/02 06:13:53;;;;;;;8.85;4.22;;;21.30;59.30;;;;;;5029487;28;20383;-84
2021/06/02 06:16:51;;;;;;;5.97;3.70;;;20.90;60.00;;;;;;5031263;28;20017;-82
2021/06/02 06:19:42;;;;;;;6.85;3.47;;;20.60;60.10;;;;;;4989912;28;20037;-81
2021/06/02 06:22:38;;;;;;;6.60;3.08;;;20.20;61.40;;;;;;5044986;28;20029;-82
2021/06/02 06:25:10;;;;;;;6.53;3.10;;;20.10;61.70;;;;;;5028783;28;20462;-83
2021/06/02 06:27:42;;;;;;;5.00;3.00;;;19.80;63.00;;;;;;5044019;28;20025;-82
2021/06/02 06:30:34;;;;;;;6.57;3.13;;;19.80;63.50;;;;;;5033582;28;21430;-82
2021/06/02 06:33:07;;;;;;;5.97;3.63;;;19.90;63.40;;;;;;5045227;28;20045;-81
2021/06/02 06:35:38;;;;;;;5.75;2.83;;;20.20;62.70;;;;;;5036213;28;20049;-82
2021/06/02 06:38:08;;;;;;;6.72;3.20;;;20.60;60.70;;;;;;5034081;28;20047;-81
2021/06/02 06:40:35;;;;;;;8.27;4.32;;;20.50;60.80;;;;;;5039115;28;20024;-83
2021/06/02 06:43:05;;;;;;;4.25;2.75;;;21.30;62.10;;;;;;5048676;28;20040;-81
2021/06/02 06:45:38;;;;;;;5.32;3.05;;;20.10;61.40;;;;;;5036365;28;20125;-83
2021/06/02 06:48:09;;;;;;;4.10;2.72;;;20.30;61.40;;;;;;5029919;28;20024;-82
2021/06/02 06:50:36;;;;;;;6.70;3.78;;;;;;;;;;5027093;28;20040;-82
2021/06/02 06:53:04;;;;;;;5.57;2.85;;;20.50;61.20;;;;;;5024347;28;20025;-83
2021/06/02 06:55:30;;;;;;;5.20;2.67;;;;;;;;;;5044288;28;20029;-83
2021/06/02 06:57:59;;;;;;;6.75;2.70;;;20.20;61.30;;;;;;5031073;28;20310;-84
2021/06/02 07:00:26;;;;;;;5.47;2.97;;;20.10;61.60;;;;;;5047966;28;20025;-83
2021/06/02 07:02:52;;;;;;;4.53;2.45;;;;;;;;;;5027280;28;20508;-83
2021/06/02 07:05:20;;;;;;;6.97;2.60;;;20.20;60.60;;;;;;5027745;28;20039;-82
2021/06/02 07:07:47;;;;;;;5.07;2.72;;;20.20;60.00;;;;;;5031264;28;20032;-82
2021/06/02 07:10:14;;;;;;;5.18;2.10;;;20.10;60.40;;;;;;5049078;28;20029;-81
2021/06/02 07:12:45;;;;;;;3.20;2.30;;;20.30;60.70;;;;;;5030158;28;20028;-82
2021/06/02 07:15:12;;;;;;;3.97;2.17;;;20.40;60.10;;;;;;5045970;28;20116;-84
2021/06/02 07:17:45;;;;;;;3.72;2.20;;;20.50;59.50;;;;;;5026960;28;20062;-83
2021/06/02 07:20:19;;;;;;;4.10;2.08;;;20.40;59.10;;;;;;5027299;28;20055;-84
2021/06/02 07:22:47;;;;;;;4.18;2.10;;;20.60;59.00;;;;;;5021207;28;20027;-82
2021/06/02 07:25:18;;;;;;;3.60;2.40;;;;;;;;;;5032418;28;20044;-81
2021/06/02 07:27:46;;;;;;;3.53;2.05;;;20.70;58.80;;;;;;5035906;28;20381;-81
2021/06/02 07:30:12;;;;;;;6.47;2.10;;;20.80;59.10;;;;;;5031246;28;20091;-84
2021/06/02 07:32:41;;;;;;;4.40;2.63;;;;;;;;;;5028981;28;20037;-85
2021/06/02 07:35:08;;;;;;;4.82;2.20;;;20.80;59.10;;;;;;5049435;28;20029;-85
2021/06/02 07:37:34;;;;;;;4.43;2.55;;;;;;;;;;5030270;28;20029;-85
2021/06/02 07:40:01;;;;;;;3.22;1.98;;;;;;;;;;5031507;28;20066;-87
2021/06/02 07:42:27;;;;;;;4.00;2.30;;;21.20;58.90;;;;;;5043309;28;20041;-85
2021/06/02 07:44:54;;;;;;;4.82;2.05;;;21.10;59.40;;;;;;5049426;28;20037;-87
2021/06/02 07:47:20;;;;;;;6.03;2.22;;;;;;;;;;5035216;28;20020;-86
2021/06/02 07:49:46;;;;;;;2.78;2.08;;;;;;;;;;5032861;28;20115;-83
2021/06/02 07:52:12;;;;;;;5.85;3.00;;;21.40;59.40;;;;;;5036058;28;20040;-86
2021/06/02 07:54:38;;;;;;;3.55;2.40;;;;;;;;;;5047215;28;20032;-85
2021/06/02 07:57:04;;;;;;;3.88;2.17;;;21.70;59.70;;;;;;5055015;28;20026;-86
2021/06/02 07:59:30;;;;;;;3.55;2.20;;;;;;;;;;5042572;28;20036;-84
2021/06/02 08:01:56;;;;;;;3.55;2.22;;;;;;;;;;5045035;28;20092;-81
2021/06/02 08:04:22;;;;;;;5.32;2.30;;;;;;;;;;5032876;28;20021;-83
2021/06/02 08:06:48;;;;;;;4.63;2.30;;;;;;;;;;5031589;28;20116;-84
2021/06/02 08:09:17;;;;;;;3.22;2.17;;;;;;;;;;5029607;28;20032;-83
2021/06/02 08:11:47;;;;;;;5.10;2.22;;;;;;;;;;5032516;28;20207;-84
2021/06/02 08:14:13;;;;;;;4.13;2.15;;;;;;;;;;5029205;28;20036;-84
2021/06/02 08:16:39;;;;;;;3.83;1.95;;;;;;;;;;5031946;28;20040;-84
2021/06/02 08:19:05;;;;;;;4.75;2.03;;;;;;;;;;5048873;28;20061;-83
2021/06/02 08:21:32;;;;;;;5.68;2.08;;;22.70;59.50;;;;;;5034503;28;20025;-85
2021/06/02 08:23:58;;;;;;;4.22;2.13;;;;;;;;;;5037853;28;20041;-85
2021/06/02 08:26:24;;;;;;;2.63;1.95;;;;;;;;;;5048081;28;20069;-84
2021/06/02 08:28:50;;;;;;;3.33;2.20;;;;;;;;;;5049935;28;20062;-87
2021/06/02 08:31:16;;;;;;;3.03;2.13;;;;;;;;;;5026852;28;20025;-84
2021/06/02 08:33:45;;;;;;;4.68;2.20;;;;;;;;;;5044474;28;20031;-84
2021/06/02 08:36:11;;;;;;;3.72;2.53;;;;;;;;;;5032152;28;20052;-86
2021/06/02 08:38:37;;;;;;;6.63;2.70;;;;;;;;;;5028472;28;20025;-85
2021/06/02 08:41:06;;;;;;;3.83;2.55;;;23.50;59.60;;;;;;5046418;28;20068;-85
2021/06/02 08:43:33;;;;;;;4.28;2.10;;;23.50;59.50;;;;;;5031592;28;20052;-81
2021/06/02 08:46:02;;;;;;;4.60;2.28;;;;;;;;;;5031464;28;20018;-84
2021/06/02 08:48:28;;;;;;;3.97;2.08;;;;;;;;;;5046592;28;20052;-83
2021/06/02 08:50:54;;;;;;;4.95;2.08;;;25.90;62.00;;;;;;5034419;28;20052;-84
2021/06/02 08:53:20;;;;;;;7.50;2.13;;;;;;;;;;5045219;28;20033;-86
2021/06/02 08:55:47;;;;;;;3.15;2.17;;;23.90;61.20;;;;;;5031831;28;20032;-81
2021/06/02 08:58:20;;;;;;;4.60;2.40;;;23.80;61.10;;;;;;5038052;28;20075;-84
2021/06/02 09:00:47;;;;;;;3.47;2.40;;;;;;;;;;5052157;28;20118;-83
2021/06/02 09:03:13;;;;;;;4.00;2.25;;;;;;;;;;5041763;28;20144;-86
2021/06/02 09:05:39;;;;;;;3.90;2.33;;;;;;;;;;5032144;28;20025;-85
2021/06/02 09:08:07;;;;;;;3.00;2.03;;;24.40;60.10;;;;;;5032236;28;20032;-84
2021/06/02 09:10:41;;;;;;;4.80;2.50;;;24.40;60.60;;;;;;5034945;28;20092;-82
2021/06/02 09:13:19;;;;;;;3.80;2.28;;;24.50;59.60;;;;;;5035106;28;20026;-84
2021/06/02 09:15:46;;;;;;;4.28;2.40;;;24.50;59.80;;;;;;5031135;28;20033;-83
2021/06/02 09:18:20;;;;;;;3.42;2.30;;;24.60;59.90;;;;;;5034426;28;20035;-84
2021/06/02 09:20:48;;;;;;;4.15;2.22;;;24.50;60.10;;;;;;5058302;28;20036;-85
2021/06/02 09:23:32;;;;;;;5.30;2.75;;;24.50;64.50;;;;;;5052776;28;20029;-84
2021/06/02 09:26:13;;;;;;;3.00;2.22;;;24.70;60.00;;;;;;5033245;28;20025;-83
2021/06/02 09:28:46;;;;;;;2.47;1.83;;;24.70;59.40;;;;;;5038382;28;20534;-84
2021/06/02 09:31:18;;;;;;;5.15;2.30;;;25.20;60.30;;;;;;5048064;28;20049;-85
2021/06/02 09:33:47;;;;;;;3.70;2.15;;;25.00;64.30;;;;;;5037705;28;20085;-84
2021/06/02 09:36:14;;;;;;;5.05;2.33;;;24.90;59.50;;;;;;5050671;28;20025;-83
2021/06/02 09:38:41;;;;;;;3.33;2.20;;;;;;;;;;5048112;28;20064;-83
2021/06/02 09:41:13;;;;;;;3.25;2.20;;;25.00;59.70;;;;;;5042721;28;20024;-86
2021/06/02 09:43:39;;;;;;;3.55;2.45;;;;;;;;;;5033732;28;20747;-84
2021/06/02 09:46:09;;;;;;;3.65;2.10;;;25.20;61.80;;;;;;5052498;28;20640;-85
2021/06/02 09:48:49;;;;;;;3.10;2.00;;;25.30;60.00;;;;;;5016009;28;20044;-79
2021/06/02 09:51:31;;;;;;;4.05;2.13;;;;;;;;;;5030969;28;20442;-83
2021/06/02 09:53:57;;;;;;;3.35;2.38;;;;;;;;;;5033945;28;20055;-81
2021/06/02 09:56:41;;;;;;;5.80;2.42;;;25.40;59.80;;;;;;5034569;28;20029;-82
2021/06/02 09:59:08;;;;;;;3.78;2.28;;;;;;;;;;5031508;28;20180;-83
2021/06/02 10:02:00;;;;;;;4.50;2.30;;;25.30;60.10;;;;;;5033411;28;20762;-79
2021/06/02 10:04:41;;;;;;;3.65;2.28;;;25.50;59.90;;;;;;5035191;28;20078;-82
2021/06/02 10:07:21;;;;;;;3.28;2.20;;;25.70;62.00;;;;;;5033397;28;20100;-82
2021/06/02 10:09:47;;;;;;;3.67;2.22;;;;;;;;;;5049683;28;20033;-83
2021/06/02 10:12:14;;;;;;;4.25;2.72;;;25.70;59.80;;;;;;5025956;28;20032;-84
2021/06/02 10:14:40;;;;;;;7.10;2.92;;;;;;;;;;5032378;28;20033;-83
2021/06/02 10:17:44;;;;;;;4.80;2.13;;;26.00;59.90;;;;;;5049232;28;20068;-82
2021/06/02 10:20:12;;;;;;;3.55;2.45;;;;;;;;;;5048832;28;20042;-84
2021/06/02 10:22:41;;;;;;;5.20;2.40;;;26.00;59.90;;;;;;5044935;28;20025;-82
2021/06/02 10:25:09;;;;;;;3.70;2.30;;;;;;;;;;5031598;28;20045;-82
2021/06/02 10:27:35;;;;;;;5.07;2.40;;;;;;;;;;5029721;28;20042;-82
2021/06/02 10:30:01;;;;;;;3.40;2.40;;;;;;;;;;5046884;28;20025;-80
2021/06/02 10:32:28;;;;;;;3.92;2.75;;;;;;;;;;5031793;28;20152;-84
2021/06/02 10:34:54;;;;;;;4.85;2.50;;;26.30;59.10;;;;;;5029001;28;20052;-82
2021/06/02 10:37:24;;;;;;;4.18;2.00;;;26.40;58.70;;;;;;5050268;28;20033;-83
2021/06/02 10:40:03;;;;;;;4.10;2.38;;;26.50;58.60;;;;;;5047128;28;20024;-82
2021/06/02 10:42:32;;;;;;;5.65;2.30;;;26.60;58.90;;;;;;5054050;28;20145;-83
2021/06/02 10:45:11;;;;;;;4.50;2.13;;;26.60;58.00;;;;;;5035841;28;20033;-84
2021/06/02 10:47:37;;;;;;;5.65;2.75;;;;;;;;;;5052042;28;20036;-82
2021/06/02 10:50:03;;;;;;;4.10;2.17;;;;;;;;;;5039474;28;20097;-82
2021/06/02 10:52:40;;;;;;;5.63;2.88;;;26.90;57.70;;;;;;5051582;28;20036;-83
2021/06/02 10:55:31;;;;;;;4.45;2.35;;;26.90;57.70;;;;;;5051561;28;20083;-83
2021/06/02 10:58:12;;;;;;;3.47;2.00;;;;;;;;;;5031215;28;20515;-84
2021/06/02 11:00:38;;;;;;;3.25;2.22;;;;;;;;;;5039637;28;20025;-83
2021/06/02 11:03:20;;;;;;;4.63;1.98;;;27.10;56.40;;;;;;5031951;28;20033;-82
2021/06/02 11:05:46;;;;;;;3.55;2.25;;;;;;;;;;5028698;28;20020;-82
2021/06/02 11:08:13;;;;;;;3.03;2.00;;;;;;;;;;5032286;28;20025;-83
2021/06/02 11:10:39;;;;;;;4.43;2.30;;;;;;;;;;5030544;28;20471;-83
2021/06/02 11:13:05;;;;;;;5.35;1.92;;;27.20;56.50;;;;;;5032743;28;20518;-83
2021/06/02 11:15:33;;;;;;;3.58;2.03;;;;;;;;;;5044917;28;20040;-82
2021/06/02 11:18:11;;;;;;;3.38;2.30;;;27.50;55.80;;;;;;5028846;28;21757;-81
2021/06/02 11:20:47;;;;;;;3.47;2.17;;;27.40;56.50;;;;;;5047605;28;20060;-82
2021/06/02 11:23:15;;;;;;;4.38;2.03;;;27.20;56.40;;;;;;5031199;28;20024;-84
2021/06/02 11:25:41;;;;;;;5.85;2.90;;;;;;;;;;5031153;28;20343;-82
2021/06/02 11:28:09;;;;;;;4.55;2.20;;;27.40;57.00;;;;;;5029932;28;20033;-82
2021/06/02 11:30:36;;;;;;;3.20;2.38;;;;;;;;;;5044002;28;20391;-82
2021/06/02 11:33:10;;;;;;;3.42;2.28;;;27.60;58.00;;;;;;5042446;28;20067;-82
2021/06/02 11:36:02;;;;;;;3.83;2.17;;;27.40;56.30;;;;;;5043992;28;20025;-79
2021/06/02 11:38:28;;;;;;;3.38;2.13;;;;;;;;;;5031924;28;20506;-83
2021/06/02 11:40:55;;;;;;;4.53;2.75;;;27.60;56.40;;;;;;5032308;28;20028;-82
2021/06/02 11:43:21;;;;;;;6.25;2.50;;;;;;;;;;5044191;28;20024;-83
2021/06/02 11:45:48;;;;;;;3.80;2.30;;;27.80;55.70;;;;;;5031376;28;20094;-83
2021/06/02 11:48:22;;;;;;;3.83;1.98;;;27.60;56.10;;;;;;5051233;28;20036;-82
2021/06/02 11:50:48;;;;;;;4.20;2.10;;;;;;;;;;5032403;28;20036;-81
2021/06/02 11:53:14;;;;;;;3.95;2.33;;;;;;;;;;5030212;28;20025;-82
2021/06/02 11:55:40;;;;;;;5.70;2.75;;;;;;;;;;5028930;28;20063;-83
2021/06/02 11:58:06;;;;;;;3.80;2.40;;;;;;;;;;5042908;28;20029;-82
2021/06/02 12:00:33;;;;;;;3.15;2.13;;;27.90;55.10;;;;;;5044721;28;20052;-82
2021/06/02 12:03:02;;;;;;;2.67;1.90;;;28.20;53.80;;;;;;5046632;28;20057;-80
2021/06/02 12:05:31;;;;;;;2.95;1.85;;;28.30;53.00;;;;;;5026633;28;20052;-82
2021/06/02 12:07:58;;;;;;;;;;;28.40;52.40;;;;;;5041167;28;20036;-80
2021/06/02 12:10:35;;;;;;;4.45;1.90;;;28.30;51.70;;;;;;5047144;28;19909;-82
2021/06/02 12:13:03;;;;;;;7.10;2.55;;;28.30;52.10;;;;;;5014066;28;20094;-81
2021/06/02 12:15:50;;;;;;;4.05;2.50;;;28.30;53.20;;;;;;5023879;28;20588;-80
2021/06/02 12:18:29;;;;;;;2.28;1.63;;;28.10;55.10;;;;;;5025069;28;20036;-81
2021/06/02 12:21:29;;;;;;;4.18;1.90;;;28.20;53.40;;;;;;5040966;28;20041;-80
2021/06/02 12:23:59;;;;;;;3.63;2.28;;;;;;;;;;5019226;28;20399;-82
2021/06/02 12:26:30;;;;;;;5.93;2.13;;;;;;;;;;5047977;28;20036;-84
2021/06/02 12:28:56;;;;;;;3.90;2.00;;;;;;;;;;5027334;28;20452;-82
2021/06/02 12:31:28;;;;;;;2.80;1.88;;;;;;;;;;5046671;28;20065;-81
2021/06/02 12:34:04;;;;;;;3.50;1.98;;;;;;;;;;5027518;28;20565;-81
2021/06/02 12:36:31;;;;;;;2.63;1.95;;;;;;;;;;5041547;28;20040;-82
2021/06/02 12:38:57;;;;;;;3.90;1.90;;;;;;;;;;5040606;28;20354;-80
2021/06/02 12:41:24;;;;;;;3.55;2.00;;;;;;;;;;5025955;28;20032;-82
2021/06/02 12:43:51;;;;;;;6.00;2.00;;;;;;;;;;5028948;28;20029;-81
2021/06/02 12:46:17;;;;;;;3.97;2.20;;;;;;;;;;5043636;28;20028;-80
2021/06/02 12:48:44;;;;;;;3.08;1.90;;;;;;;;;;5033470;28;20040;-83
2021/06/02 12:51:19;;;;;;;2.90;1.90;;;28.50;53.40;;;;;;5031839;28;20394;-79
2021/06/02 12:53:46;;;;;;;3.45;1.75;;;;;;;;;;5033959;28;20028;-83
2021/06/02 12:56:12;;;;;;;3.20;2.00;;;;;;;;;;5049482;28;20795;-84
2021/06/02 12:58:39;;;;;;;4.03;1.92;;;;;;;;;;5029798;28;20031;-80
2021/06/02 13:01:05;;;;;;;4.63;1.98;;;;;;;;;;5026246;28;20037;-81
2021/06/02 13:03:32;;;;;;;4.10;2.28;;;28.40;53.40;;;;;;5029072;28;20035;-80
2021/06/02 13:05:58;;;;;;;3.88;1.98;;;;;;;;;;5048319;28;20039;-81
2021/06/02 13:08:25;;;;;;;3.58;2.42;;;;;;;;;;5046953;28;20032;-79
2021/06/02 13:10:51;;;;;;;3.00;2.00;;;;;;;;;;5037218;28;20028;-81
2021/06/02 13:13:17;;;;;;;3.25;1.98;;;;;;;;;;5052572;28;20025;-79
2021/06/02 13:15:45;;;;;;;4.18;2.30;;;;;;;;;;5032402;28;20040;-81
2021/06/02 13:18:24;;;;;;;2.95;2.00;;;;;;;;;;5039228;28;20036;-81
2021/06/02 13:20:50;;;;;;;;;;;29.30;51.60;;;;;;5036015;28;20575;-82
2021/06/02 13:23:16;;;;;;;2.92;2.10;;;;;;;;;;5047289;28;20017;-81
2021/06/02 13:25:44;;;;;;;2.47;1.90;;;28.60;52.50;;;;;;5053184;28;20025;-82
2021/06/02 13:28:10;;;;;;;6.18;2.65;;;;;;;;;;5041014;28;20459;-81
2021/06/02 13:30:41;;;;;;;4.20;1.88;;;28.80;53.10;;;;;;5036481;28;20033;-82
2021/06/02 13:33:07;;;;;;;3.85;2.20;;;;;;;;;;5033255;28;20029;-83
2021/06/02 13:35:34;;;;;;;3.20;2.10;;;29.00;52.80;;;;;;5036028;28;20033;-81
2021/06/02 13:38:00;;;;;;;4.78;2.42;;;;;;;;;;5034170;28;20022;-82
2021/06/02 13:40:34;;;;;;;3.33;2.15;;;28.90;52.20;;;;;;5034106;28;20071;-83
2021/06/02 13:43:13;;;;;;;2.90;2.00;;;29.00;54.20;;;;;;5031474;28;20037;-82
2021/06/02 13:45:47;;;;;;;4.55;2.08;;;29.10;52.80;;;;;;5035937;28;20025;-81
2021/06/02 13:48:34;;;;;;;4.82;2.70;;;29.00;59.00;;;;;;5034080;28;20644;-81
2021/06/02 13:51:25;;;;;;;4.35;2.35;;;29.20;53.10;;;;;;5032781;28;20053;-81
2021/06/02 13:54:11;;;;;;;3.47;2.10;;;29.30;53.30;;;;;;5052016;28;20033;-82
2021/06/02 13:57:04;;;;;;;2.97;2.00;;;29.30;52.90;;;;;;5052373;28;20099;-84
2021/06/02 13:59:36;;;;;;;4.65;1.90;;;29.40;52.90;;;;;;5047465;28;20584;-84
2021/06/02 14:02:04;;;;;;;3.55;1.90;;;29.50;52.10;;;;;;5032664;28;20294;-82
2021/06/02 14:04:30;;;;;;;3.13;1.92;;;;;;;;;;5051225;28;20030;-83
2021/06/02 14:06:57;;;;;;;3.25;1.88;;;28.90;52.70;;;;;;5037466;28;20032;-82